createdAt,value
2022-08-29T00:00:28.745Z,19.18
2022-08-29T00:03:08.527Z,19.17
2022-08-29T00:05:37.880Z,19.12
2022-08-29T00:08:14.046Z,19.08
2022-08-29T00:10:41.631Z,19.07
2022-08-29T00:13:16.894Z,19.08
2022-08-29T00:15:45.205Z,19.09
2022-08-29T00:18:26.055Z,19.11
2022-08-29T00:21:06.910Z,19.09
2022-08-29T00:23:33.945Z,19.05
2022-08-29T00:26:06.890Z,19.04
2022-08-29T00:28:33.615Z,19.02
2022-08-29T00:31:06.898Z,19.02
2022-08-29T00:33:33.612Z,18.96
2022-08-29T00:36:08.053Z,18.96
2022-08-29T00:38:35.288Z,18.87
2022-08-29T00:41:08.918Z,18.84
2022-08-29T00:43:37.292Z,18.84
2022-08-29T00:46:47.948Z,18.81
2022-08-29T00:49:44.481Z,18.74
2022-08-29T00:52:24.876Z,18.71
2022-08-29T00:54:54.202Z,18.82
2022-08-29T00:57:28.936Z,18.82
2022-08-29T00:59:55.928Z,18.83
2022-08-29T01:02:28.943Z,18.87
2022-08-29T01:05:01.901Z,18.80
2022-08-29T01:07:28.934Z,18.74
2022-08-29T01:09:55.776Z,18.89
2022-08-29T01:12:30.925Z,18.93
2022-08-29T01:15:06.304Z,18.93
2022-08-29T01:17:52.885Z,18.90
2022-08-29T01:20:56.889Z,18.98
2022-08-29T01:23:50.895Z,19.04
2022-08-29T01:26:23.890Z,19.14
2022-08-29T01:28:58.886Z,19.11
2022-08-29T01:31:37.807Z,19.05
2022-08-29T01:34:24.889Z,18.98
2022-08-29T01:37:02.051Z,18.95
2022-08-29T01:39:32.915Z,18.95
2022-08-29T01:42:08.889Z,19.08
2022-08-29T01:44:35.900Z,18.99
2022-08-29T01:47:11.897Z,18.95
2022-08-29T01:49:40.604Z,18.96
2022-08-29T01:52:15.045Z,18.97
2022-08-29T01:54:43.432Z,18.93
2022-08-29T01:57:17.882Z,18.84
2022-08-29T01:59:44.956Z,18.88
2022-08-29T02:02:23.041Z,18.89
2022-08-29T02:04:56.889Z,18.94
2022-08-29T02:07:31.882Z,18.96
2022-08-29T02:09:58.517Z,18.93
2022-08-29T02:12:31.896Z,18.92
2022-08-29T02:14:59.332Z,18.88
2022-08-29T02:17:39.874Z,18.87
2022-08-29T02:20:19.908Z,18.83
2022-08-29T02:22:46.727Z,18.91
2022-08-29T02:25:38.899Z,18.95
2022-08-29T02:28:11.870Z,18.86
2022-08-29T02:30:41.765Z,18.91
2022-08-29T02:33:15.874Z,18.94
2022-08-29T02:35:53.048Z,18.92
2022-08-29T02:38:20.722Z,18.90
2022-08-29T02:40:55.878Z,18.91
2022-08-29T02:43:23.665Z,19.05
2022-08-29T02:45:57.865Z,19.08
2022-08-29T02:48:31.877Z,18.94
2022-08-29T02:51:01.349Z,18.95
2022-08-29T02:53:37.858Z,19.13
2022-08-29T02:56:04.479Z,18.95
2022-08-29T02:58:40.871Z,19.03
2022-08-29T03:01:08.387Z,19.09
2022-08-29T03:03:41.862Z,19.03
2022-08-29T03:06:16.023Z,19.03
2022-08-29T03:08:43.959Z,19.00
2022-08-29T03:11:16.875Z,19.09
2022-08-29T03:13:57.494Z,19.00
2022-08-29T03:16:32.910Z,18.98
2022-08-29T03:19:06.704Z,19.07
2022-08-29T03:21:39.870Z,19.06
2022-08-29T03:24:07.193Z,19.02
2022-08-29T03:26:40.874Z,19.02
2022-08-29T03:29:07.581Z,19.00
2022-08-29T03:31:41.893Z,18.97
2022-08-29T03:34:15.929Z,18.96
2022-08-29T03:36:48.877Z,18.87
2022-08-29T03:39:15.646Z,18.82
2022-08-29T03:41:42.642Z,18.91
2022-08-29T03:44:15.872Z,18.90
2022-08-29T03:46:48.888Z,18.90
2022-08-29T03:49:15.719Z,18.84
2022-08-29T03:51:49.025Z,18.82
2022-08-29T03:54:15.727Z,18.78
2022-08-29T03:56:49.042Z,18.74
2022-08-29T03:59:23.853Z,18.70
2022-08-29T04:01:57.924Z,18.69
2022-08-29T04:04:49.904Z,18.67
2022-08-29T04:07:17.715Z,18.66
2022-08-29T04:09:50.867Z,18.68
2022-08-29T04:12:17.704Z,18.65
2022-08-29T04:14:51.852Z,18.60
2022-08-29T04:17:52.680Z,18.70
2022-08-29T04:20:27.853Z,18.75
2022-08-29T04:22:56.217Z,18.73
2022-08-29T04:25:35.106Z,18.67
2022-08-29T04:28:17.021Z,18.65
2022-08-29T04:30:51.370Z,18.65
2022-08-29T04:33:31.878Z,18.73
2022-08-29T04:35:58.575Z,18.76
2022-08-29T04:38:31.839Z,18.75
2022-08-29T04:40:58.514Z,18.79
2022-08-29T04:43:31.879Z,18.79
2022-08-29T04:45:58.712Z,18.76
2022-08-29T04:48:25.412Z,18.75
2022-08-29T04:51:06.866Z,18.86
2022-08-29T04:53:34.335Z,18.88
2022-08-29T04:56:16.860Z,18.90
2022-08-29T04:58:47.545Z,18.86
2022-08-29T05:01:22.930Z,18.86
2022-08-29T05:03:50.305Z,18.84
2022-08-29T05:06:25.830Z,18.82
2022-08-29T05:08:59.199Z,18.81
2022-08-29T05:11:37.841Z,18.81
2022-08-29T05:14:04.533Z,18.82
2022-08-29T05:16:37.849Z,18.92
2022-08-29T05:19:24.821Z,18.99
2022-08-29T05:22:03.867Z,19.00
2022-08-29T05:24:31.747Z,19.15
2022-08-29T05:27:04.852Z,19.06
2022-08-29T05:29:31.646Z,19.00
2022-08-29T05:32:04.831Z,19.01
2022-08-29T05:34:34.191Z,19.09
2022-08-29T05:37:04.270Z,19.08
2022-08-29T05:39:37.848Z,19.01
2022-08-29T05:42:06.031Z,18.95
2022-08-29T05:44:40.839Z,19.08
2022-08-29T05:47:10.014Z,19.11
2022-08-29T05:49:45.861Z,19.13
2022-08-29T05:52:21.993Z,19.04
2022-08-29T05:54:49.165Z,19.06
2022-08-29T05:57:27.000Z,19.06
2022-08-29T05:59:54.196Z,19.10
2022-08-29T06:02:28.968Z,19.12
2022-08-29T06:04:57.127Z,19.14
2022-08-29T06:07:30.949Z,19.07
2022-08-29T06:10:03.838Z,19.16
2022-08-29T06:12:36.860Z,19.10
2022-08-29T06:15:10.911Z,19.17
2022-08-29T06:17:57.829Z,19.28
2022-08-29T06:20:30.835Z,19.17
2022-08-29T06:23:03.837Z,19.25
2022-08-29T06:25:39.658Z,19.21
2022-08-29T06:28:14.089Z,19.17
2022-08-29T06:30:50.814Z,19.27
2022-08-29T06:33:25.837Z,19.28
2022-08-29T06:35:52.930Z,19.49
2022-08-29T06:38:25.847Z,19.39
2022-08-29T06:40:52.574Z,19.34
2022-08-29T06:43:26.026Z,19.49
2022-08-29T06:45:52.975Z,19.42
2022-08-29T06:48:29.555Z,19.50
2022-08-29T06:51:02.836Z,19.47
2022-08-29T06:53:37.388Z,19.56
2022-08-29T06:56:06.573Z,19.54
2022-08-29T06:58:44.835Z,19.48
2022-08-29T07:01:15.418Z,19.49
2022-08-29T07:03:48.861Z,19.55
2022-08-29T07:06:23.847Z,19.54
2022-08-29T07:08:55.337Z,19.65
2022-08-29T07:11:31.842Z,19.59
2022-08-29T07:14:07.833Z,19.59
2022-08-29T07:16:35.720Z,19.65
2022-08-29T07:19:16.841Z,19.67
2022-08-29T07:21:43.655Z,19.71
2022-08-29T07:24:18.103Z,19.73
2022-08-29T07:26:45.325Z,19.73
2022-08-29T07:29:25.848Z,19.76
2022-08-29T07:31:53.433Z,19.79
2022-08-29T07:34:26.831Z,19.77
2022-08-29T07:36:53.507Z,19.73
2022-08-29T07:39:26.829Z,19.73
2022-08-29T07:41:53.577Z,19.73
2022-08-29T07:44:26.841Z,19.80
2022-08-29T07:47:06.802Z,19.88
2022-08-29T07:49:41.133Z,19.94
2022-08-29T07:52:14.873Z,20.06
2022-08-29T07:54:48.811Z,20.12
2022-08-29T07:57:24.856Z,20.05
2022-08-29T07:59:51.770Z,20.05
2022-08-29T08:02:25.926Z,20.21
2022-08-29T08:04:58.812Z,20.29
2022-08-29T08:07:29.328Z,20.27
2022-08-29T08:10:02.868Z,20.24
2022-08-29T08:12:29.606Z,20.24
2022-08-29T08:15:03.878Z,20.29
2022-08-29T08:17:39.821Z,20.32
2022-08-29T08:20:21.801Z,20.40
2022-08-29T08:22:54.836Z,20.29
2022-08-29T08:25:24.465Z,20.37
2022-08-29T08:27:57.823Z,20.40
2022-08-29T08:30:25.567Z,20.41
2022-08-29T08:32:54.993Z,20.48
2022-08-29T08:35:28.835Z,20.49
2022-08-29T08:37:56.242Z,20.54
2022-08-29T08:40:36.996Z,20.59
2022-08-29T08:43:03.758Z,20.68
2022-08-29T08:45:42.879Z,20.73
2022-08-29T08:48:22.837Z,20.78
2022-08-29T08:51:06.810Z,20.83
2022-08-29T08:53:50.811Z,20.84
2022-08-29T08:56:22.658Z,20.86
2022-08-29T08:59:00.835Z,20.86
2022-08-29T09:01:33.352Z,20.89
2022-08-29T09:04:58.806Z,20.90
2022-08-29T09:07:31.194Z,20.92
2022-08-29T09:10:18.801Z,20.98
2022-08-29T09:12:54.506Z,21.04
2022-08-29T09:15:33.115Z,21.06
2022-08-29T09:18:23.866Z,21.10
2022-08-29T09:21:06.526Z,21.14
2022-08-29T09:23:57.184Z,21.17
2022-08-29T09:26:24.164Z,21.20
2022-08-29T09:28:57.815Z,21.26
2022-08-29T09:31:28.912Z,21.26
2022-08-29T09:34:06.838Z,21.29
2022-08-29T09:36:47.328Z,21.34
2022-08-29T09:39:36.809Z,21.44
2022-08-29T09:42:12.680Z,21.53
2022-08-29T09:44:47.947Z,21.55
2022-08-29T09:47:32.504Z,21.59
2022-08-29T09:50:23.875Z,21.63
2022-08-29T09:53:05.802Z,21.72
2022-08-29T09:55:45.284Z,21.75
2022-08-29T09:58:25.799Z,21.82
2022-08-29T10:01:04.468Z,21.83
2022-08-29T10:03:44.799Z,21.83
2022-08-29T10:06:17.018Z,21.83
2022-08-29T10:09:13.805Z,21.85
2022-08-29T10:11:53.045Z,21.89
2022-08-29T10:14:50.524Z,21.97
2022-08-29T10:17:43.402Z,22.04
2022-08-29T10:20:24.940Z,22.10
2022-08-29T10:23:09.443Z,22.13
2022-08-29T10:25:47.789Z,22.14
2022-08-29T10:28:48.406Z,22.25
2022-08-29T10:31:37.849Z,22.33
2022-08-29T10:34:33.804Z,22.35
2022-08-29T10:37:10.653Z,22.26
2022-08-29T10:39:57.884Z,22.29
2022-08-29T10:42:26.406Z,22.36
2022-08-29T10:45:42.839Z,22.43
2022-08-29T10:48:11.440Z,22.55
2022-08-29T10:51:13.785Z,22.53
2022-08-29T10:53:56.836Z,22.60
2022-08-29T10:56:49.793Z,22.66
2022-08-29T10:59:34.820Z,22.65
2022-08-29T11:02:40.231Z,22.71
2022-08-29T11:05:28.820Z,22.79
2022-08-29T11:08:16.161Z,22.97
2022-08-29T11:10:56.781Z,23.08
2022-08-29T11:13:39.790Z,23.20
2022-08-29T11:16:21.877Z,23.35
2022-08-29T11:19:31.806Z,23.50
2022-08-29T11:22:10.132Z,23.61
2022-08-29T11:24:47.301Z,23.57
2022-08-29T11:27:53.559Z,23.80
2022-08-29T11:31:02.857Z,23.95
2022-08-29T11:33:59.011Z,23.94
2022-08-29T11:37:21.807Z,23.88
2022-08-29T11:40:05.188Z,23.99
2022-08-29T11:42:51.212Z,24.33
2022-08-29T11:45:39.863Z,24.48
2022-08-29T11:48:34.224Z,24.64
2022-08-29T11:51:36.324Z,24.56
2022-08-29T11:54:25.329Z,24.58
2022-08-29T11:57:07.791Z,24.43
2022-08-29T11:59:55.793Z,24.30
2022-08-29T12:02:28.087Z,24.31
2022-08-29T12:05:04.792Z,24.77
2022-08-29T12:08:14.408Z,25.20
2022-08-29T12:10:56.404Z,25.32
2022-08-29T12:13:51.796Z,25.61
2022-08-29T12:16:32.813Z,25.75
2022-08-29T12:19:06.771Z,26.25
2022-08-29T12:21:48.467Z,26.28
2022-08-29T12:24:57.219Z,26.31
2022-08-29T12:28:09.780Z,26.10
2022-08-29T12:30:45.024Z,25.85
2022-08-29T12:33:38.788Z,25.84
2022-08-29T12:36:26.671Z,25.97
2022-08-29T12:39:19.494Z,26.12
2022-08-29T12:41:59.788Z,26.47
2022-08-29T12:44:34.878Z,26.74
2022-08-29T12:47:20.787Z,27.08
2022-08-29T12:49:53.433Z,27.03
2022-08-29T12:52:36.785Z,27.24
2022-08-29T12:55:32.763Z,27.45
2022-08-29T12:58:06.808Z,27.54
2022-08-29T13:00:34.551Z,27.56
2022-08-29T13:03:14.899Z,27.39
2022-08-29T13:05:48.766Z,27.37
2022-08-29T13:08:45.791Z,27.39
2022-08-29T13:11:19.793Z,27.52
2022-08-29T13:13:46.592Z,27.36
2022-08-29T13:16:32.895Z,27.22
2022-08-29T13:19:12.780Z,27.20
2022-08-29T13:21:39.576Z,27.26
2022-08-29T13:24:17.771Z,27.02
2022-08-29T13:27:03.017Z,26.97
2022-08-29T13:29:40.248Z,27.19
2022-08-29T13:32:33.779Z,27.19
2022-08-29T13:35:15.354Z,27.36
2022-08-29T13:37:52.790Z,27.55
2022-08-29T13:40:44.105Z,27.85
2022-08-29T13:43:38.792Z,28.09
2022-08-29T13:46:08.864Z,28.17
2022-08-29T13:48:45.801Z,28.46
2022-08-29T13:51:13.162Z,28.38
2022-08-29T13:53:47.056Z,28.39
2022-08-29T13:56:33.917Z,28.58
2022-08-29T13:59:01.046Z,28.69
2022-08-29T14:02:07.254Z,28.54
2022-08-29T14:04:37.516Z,28.50
2022-08-29T14:07:06.057Z,28.76
2022-08-29T14:09:43.780Z,28.61
2022-08-29T14:12:16.788Z,28.62
2022-08-29T14:14:44.458Z,28.49
2022-08-29T14:17:19.988Z,28.71
2022-08-29T14:20:06.784Z,28.70
2022-08-29T14:22:33.555Z,28.90
2022-08-29T14:25:01.624Z,28.94
2022-08-29T14:27:35.777Z,28.88
2022-08-29T14:30:10.817Z,29.13
2022-08-29T14:32:44.781Z,29.07
2022-08-29T14:35:12.099Z,28.93
2022-08-29T14:38:00.795Z,29.08
2022-08-29T14:40:28.776Z,29.05
2022-08-29T14:42:56.450Z,29.16
2022-08-29T14:45:29.762Z,29.15
2022-08-29T14:48:02.798Z,29.35
2022-08-29T14:50:29.488Z,29.31
2022-08-29T14:52:56.141Z,29.34
2022-08-29T14:55:29.797Z,29.34
2022-08-29T14:57:56.605Z,29.32
2022-08-29T15:00:32.797Z,29.24
2022-08-29T15:03:00.284Z,29.17
2022-08-29T15:05:33.765Z,29.23
2022-08-29T15:08:05.975Z,29.22
2022-08-29T15:10:39.816Z,29.18
2022-08-29T15:13:07.407Z,29.31
2022-08-29T15:15:40.809Z,29.36
2022-08-29T15:18:07.544Z,29.17
2022-08-29T15:20:47.976Z,29.11
2022-08-29T15:23:20.891Z,29.11
2022-08-29T15:25:53.780Z,29.13
2022-08-29T15:28:27.791Z,28.99
2022-08-29T15:30:54.561Z,28.88
2022-08-29T15:33:28.799Z,28.93
2022-08-29T15:36:01.775Z,28.77
2022-08-29T15:38:34.777Z,28.54
2022-08-29T15:41:01.456Z,28.20
2022-08-29T15:43:34.780Z,28.01
2022-08-29T15:46:01.575Z,27.76
2022-08-29T15:48:34.772Z,27.58
2022-08-29T15:51:01.467Z,27.51
2022-08-29T15:53:34.778Z,27.49
2022-08-29T15:56:01.560Z,27.47
2022-08-29T15:58:28.251Z,27.39
2022-08-29T16:01:01.788Z,27.38
2022-08-29T16:03:34.797Z,27.27
2022-08-29T16:06:01.626Z,27.17
2022-08-29T16:08:34.766Z,27.06
2022-08-29T16:11:01.819Z,26.91
2022-08-29T16:13:34.768Z,26.84
2022-08-29T16:16:08.854Z,26.69
2022-08-29T16:18:41.784Z,26.58
2022-08-29T16:21:14.756Z,26.49
2022-08-29T16:23:48.779Z,26.40
2022-08-29T16:26:15.792Z,26.31
2022-08-29T16:28:48.760Z,26.18
2022-08-29T16:31:17.654Z,26.11
2022-08-29T16:33:51.774Z,26.03
2022-08-29T16:36:18.449Z,25.94
2022-08-29T16:38:51.829Z,25.89
2022-08-29T16:41:20.853Z,25.83
2022-08-29T16:43:58.801Z,25.76
2022-08-29T16:46:30.835Z,25.69
2022-08-29T16:48:58.258Z,25.63
2022-08-29T16:51:33.774Z,25.58
2022-08-29T16:54:01.078Z,25.48
2022-08-29T16:56:34.749Z,25.39
2022-08-29T16:59:02.998Z,25.30
2022-08-29T17:01:41.800Z,25.19
2022-08-29T17:04:18.779Z,25.10
2022-08-29T17:06:48.912Z,25.01
2022-08-29T17:09:26.739Z,24.95
2022-08-29T17:12:03.623Z,24.88
2022-08-29T17:14:41.766Z,24.82
2022-08-29T17:17:08.463Z,24.74
2022-08-29T17:19:50.787Z,24.67
2022-08-29T17:22:24.759Z,24.58
2022-08-29T17:24:58.790Z,24.54
2022-08-29T17:27:29.881Z,24.49
2022-08-29T17:30:03.768Z,24.42
2022-08-29T17:32:30.600Z,24.34
2022-08-29T17:35:03.771Z,24.28
2022-08-29T17:37:36.299Z,24.21
2022-08-29T17:40:12.810Z,24.16
2022-08-29T17:42:43.292Z,24.09
2022-08-29T17:45:16.782Z,24.01
2022-08-29T17:47:44.407Z,23.96
2022-08-29T17:50:17.775Z,23.90
2022-08-29T17:52:44.949Z,23.80
2022-08-29T17:55:18.769Z,23.75
2022-08-29T17:57:46.505Z,23.68
2022-08-29T18:00:20.748Z,23.64
2022-08-29T18:02:47.944Z,23.56
2022-08-29T18:05:20.752Z,23.49
2022-08-29T18:07:48.041Z,23.41
2022-08-29T18:10:16.888Z,23.35
2022-08-29T18:12:50.772Z,23.31
2022-08-29T18:15:23.781Z,23.24
2022-08-29T18:17:57.794Z,23.18
2022-08-29T18:20:37.739Z,23.12
2022-08-29T18:23:11.597Z,23.06
2022-08-29T18:25:45.766Z,23.01
2022-08-29T18:28:20.760Z,22.98
2022-08-29T18:30:54.879Z,22.93
2022-08-29T18:33:38.774Z,22.91
2022-08-29T18:36:15.047Z,22.87
2022-08-29T18:38:48.822Z,22.83
2022-08-29T18:41:15.818Z,22.78
2022-08-29T18:43:52.757Z,22.74
2022-08-29T18:46:20.183Z,22.69
2022-08-29T18:48:53.782Z,22.65
2022-08-29T18:51:21.190Z,22.64
2022-08-29T18:53:54.762Z,22.61
2022-08-29T18:56:27.771Z,22.56
2022-08-29T18:59:02.800Z,22.52
2022-08-29T19:01:32.206Z,22.48
2022-08-29T19:04:08.757Z,22.44
2022-08-29T19:06:35.308Z,22.40
2022-08-29T19:09:08.753Z,22.38
2022-08-29T19:11:36.491Z,22.31
2022-08-29T19:14:09.770Z,22.29
2022-08-29T19:16:43.758Z,22.27
2022-08-29T19:19:16.855Z,22.27
2022-08-29T19:21:59.080Z,22.20
2022-08-29T19:24:26.328Z,22.16
2022-08-29T19:26:59.752Z,22.13
2022-08-29T19:29:26.404Z,22.12
2022-08-29T19:31:59.994Z,22.05
2022-08-29T19:34:27.055Z,22.00
2022-08-29T19:37:01.753Z,21.94
2022-08-29T19:39:30.583Z,21.92
2022-08-29T19:42:04.766Z,21.88
2022-08-29T19:44:31.961Z,21.86
2022-08-29T19:47:08.789Z,21.80
2022-08-29T19:49:45.338Z,21.76
2022-08-29T19:52:12.893Z,21.72
2022-08-29T19:54:39.781Z,21.69
2022-08-29T19:57:16.871Z,21.68
2022-08-29T19:59:44.375Z,21.63
2022-08-29T20:02:17.820Z,21.62
2022-08-29T20:04:45.025Z,21.59
2022-08-29T20:07:20.736Z,21.57
2022-08-29T20:09:53.778Z,21.54
2022-08-29T20:12:20.533Z,21.52
2022-08-29T20:14:54.749Z,21.47
2022-08-29T20:17:21.462Z,21.43
2022-08-29T20:20:01.757Z,21.45
2022-08-29T20:22:35.133Z,21.41
2022-08-29T20:25:08.745Z,21.44
2022-08-29T20:27:36.805Z,21.42
2022-08-29T20:30:13.735Z,21.40
2022-08-29T20:32:49.521Z,21.35
2022-08-29T20:35:42.760Z,21.32
2022-08-29T20:38:09.886Z,21.29
2022-08-29T20:40:45.823Z,21.29
2022-08-29T20:43:17.370Z,21.27
2022-08-29T20:45:50.775Z,21.23
2022-08-29T20:48:17.612Z,21.22
2022-08-29T20:50:51.760Z,21.21
2022-08-29T20:53:32.493Z,21.17
2022-08-29T20:56:07.721Z,21.16
2022-08-29T20:58:34.777Z,21.15
2022-08-29T21:01:08.812Z,21.11
2022-08-29T21:03:54.639Z,21.10
2022-08-29T21:06:28.737Z,21.06
2022-08-29T21:09:02.743Z,21.07
2022-08-29T21:11:35.752Z,21.05
2022-08-29T21:14:02.784Z,20.97
2022-08-29T21:16:35.816Z,20.93
2022-08-29T21:19:10.073Z,20.86
2022-08-29T21:21:49.801Z,20.82
2022-08-29T21:24:16.961Z,20.72
2022-08-29T21:26:45.319Z,20.72
2022-08-29T21:29:18.715Z,20.73
2022-08-29T21:31:45.527Z,20.71
2022-08-29T21:34:19.728Z,20.71
2022-08-29T21:36:46.479Z,20.67
2022-08-29T21:39:29.022Z,20.69
2022-08-29T21:41:57.725Z,20.67
2022-08-29T21:44:33.748Z,20.64
2022-08-29T21:47:00.972Z,20.60
2022-08-29T21:49:34.697Z,20.55
2022-08-29T21:52:02.658Z,20.51
2022-08-29T21:54:35.729Z,20.51
2022-08-29T21:57:09.006Z,20.45
2022-08-29T21:59:35.741Z,20.41
2022-08-29T22:02:11.764Z,20.38
2022-08-29T22:04:39.141Z,20.38
2022-08-29T22:07:13.738Z,20.34
2022-08-29T22:09:40.432Z,20.38
2022-08-29T22:12:14.730Z,20.40
2022-08-29T22:15:17.722Z,20.31
2022-08-29T22:17:50.723Z,20.25
2022-08-29T22:20:30.738Z,20.23
2022-08-29T22:23:03.737Z,20.19
2022-08-29T22:25:37.723Z,20.16
2022-08-29T22:28:06.193Z,20.09
2022-08-29T22:30:39.725Z,20.02
2022-08-29T22:33:06.758Z,20.03
2022-08-29T22:35:41.724Z,20.07
2022-08-29T22:38:08.408Z,20.05
2022-08-29T22:40:41.749Z,20.01
2022-08-29T22:43:08.611Z,19.92
2022-08-29T22:45:41.754Z,19.90
2022-08-29T22:48:15.737Z,19.87
2022-08-29T22:50:46.039Z,19.83
2022-08-29T22:53:31.763Z,19.84
2022-08-29T22:55:58.742Z,19.82
2022-08-29T22:58:31.701Z,19.81
2022-08-29T23:01:04.705Z,19.78
2022-08-29T23:03:32.168Z,19.74
2022-08-29T23:05:59.656Z,19.73
2022-08-29T23:08:32.728Z,19.72
2022-08-29T23:11:06.716Z,19.72
2022-08-29T23:13:40.702Z,19.67
2022-08-29T23:16:13.842Z,19.57
2022-08-29T23:18:41.044Z,19.61
2022-08-29T23:21:20.720Z,19.62
2022-08-29T23:23:53.707Z,19.56
2022-08-29T23:26:21.233Z,19.51
2022-08-29T23:28:54.732Z,19.51
2022-08-29T23:31:24.606Z,19.49
2022-08-29T23:33:59.753Z,19.47
2022-08-29T23:36:26.454Z,19.45
2022-08-29T23:38:59.730Z,19.42
2022-08-29T23:41:26.675Z,19.40
2022-08-29T23:43:53.609Z,19.39
2022-08-29T23:46:27.874Z,19.33
2022-08-29T23:49:01.739Z,19.34
2022-08-29T23:51:28.414Z,19.33
2022-08-29T23:54:01.714Z,19.30
2022-08-29T23:56:34.721Z,19.29
2022-08-29T23:59:01.449Z,19.25
